Time;durP1;ratioP1;P1;durP2;ratioP2;P2;SDS_P1;SDS_P2;PMS_P1;PMS_P2;Temp;Humidity;BMP_temperature;BMP_pressure;BME280_temperature;BME280_humidity;BME280_pressure;Samples;Min_cycle;Max_cycle;Signal;HPM_P1;HPM_P2
2023/01/14 00:02:20;;;;;;;7.33;1.93;;;5.60;99.90;;;;;;10357582;28;20201;-81
2023/01/14 00:07:41;;;;;;;7.33;2.90;;;5.60;99.90;;;;;;10357198;28;20204;-86
2023/01/14 00:13:02;;;;;;;7.53;2.80;;;5.70;99.90;;;;;;10357208;28;20223;-80
2023/01/14 00:18:24;;;;;;;7.37;1.90;;;5.70;99.90;;;;;;10328799;28;20231;-86
2023/01/14 00:23:45;;;;;;;5.00;2.30;;;5.70;99.90;;;;;;10356046;28;20368;-87
2023/01/14 00:29:13;;;;;;;8.57;2.30;;;5.80;99.90;;;;;;10332137;28;20199;-87
2023/01/14 00:34:36;;;;;;;8.00;3.37;;;5.80;99.90;;;;;;10332656;28;20196;-87
2023/01/14 00:39:57;;;;;;;8.70;2.63;;;5.90;99.90;;;;;;10355106;28;20234;-86
2023/01/14 00:45:18;;;;;;;7.50;2.30;;;5.80;99.90;;;;;;10379027;28;20365;-82
2023/01/14 00:50:39;;;;;;;8.40;2.50;;;5.80;99.90;;;;;;10386365;28;20291;-79
2023/01/14 00:56:01;;;;;;;5.80;2.10;;;5.80;99.90;;;;;;10355413;28;20404;-83
2023/01/14 01:01:22;;;;;;;6.50;2.00;;;5.80;99.90;;;;;;10369280;28;20543;-86
2023/01/14 01:06:43;;;;;;;11.00;1.90;;;5.80;99.90;;;;;;10358981;28;20201;-81
2023/01/14 01:12:05;;;;;;;9.23;2.17;;;5.80;99.90;;;;;;10371817;28;20434;-81
2023/01/14 01:17:28;;;;;;;6.20;2.07;;;5.80;99.90;;;;;;10340084;28;20282;-84
2023/01/14 01:22:50;;;;;;;7.03;1.90;;;5.80;99.90;;;;;;10347287;28;20238;-79
2023/01/14 01:28:11;;;;;;;4.50;2.10;;;5.80;99.90;;;;;;10314047;28;20404;-79
2023/01/14 01:33:34;;;;;;;10.93;2.10;;;5.80;99.90;;;;;;10343906;28;20190;-85
2023/01/14 01:38:56;;;;;;;6.43;2.00;;;5.80;99.90;;;;;;10346139;28;20229;-79
2023/01/14 01:44:17;;;;;;;10.47;2.67;;;5.80;99.90;;;;;;10335493;28;20195;-82
2023/01/14 01:49:39;;;;;;;7.13;2.20;;;5.80;99.90;;;;;;10347191;28;20200;-82
2023/01/14 01:55:06;;;;;;;5.50;2.53;;;5.90;99.90;;;;;;10354746;28;20187;-85
2023/01/14 02:00:28;;;;;;;6.70;1.97;;;5.70;99.90;;;;;;10339448;28;20380;-86
2023/01/14 02:05:51;;;;;;;9.40;2.23;;;5.80;99.90;;;;;;10330925;28;20206;-86
2023/01/14 02:11:27;;;;;;;7.87;1.80;;;5.80;99.90;;;;;;10325669;28;20221;-85
2023/01/14 02:17:21;;;;;;;7.30;2.13;;;5.70;99.90;;;;;;10328406;28;20522;-84
2023/01/14 02:22:57;;;;;;;9.10;2.93;;;5.70;99.90;;;;;;10330006;28;20244;-86
2023/01/14 02:28:22;;;;;;;6.47;1.90;;;5.70;99.90;;;;;;10302373;28;20188;-79
2023/01/14 02:33:55;;;;;;;5.67;2.20;;;5.80;99.90;;;;;;10288143;28;20200;-86
2023/01/14 02:39:35;;;;;;;6.93;1.67;;;5.80;99.90;;;;;;10288786;28;20230;-84
2023/01/14 02:45:09;;;;;;;6.13;2.07;;;5.90;99.90;;;;;;10328215;28;20201;-80
2023/01/14 02:50:32;;;;;;;7.93;2.20;;;5.90;99.90;;;;;;10324702;28;20202;-83
2023/01/14 02:55:57;;;;;;;6.47;2.17;;;5.90;99.90;;;;;;10311624;28;20247;-81
2023/01/14 03:01:42;;;;;;;4.83;2.40;;;6.00;99.90;;;;;;10311542;28;20207;-79
2023/01/14 03:07:05;;;;;;;3.13;1.93;;;6.00;99.90;;;;;;10324978;28;20506;-85
2023/01/14 03:12:44;;;;;;;6.70;1.80;;;6.00;99.90;;;;;;10310591;28;20226;-81
2023/01/14 03:18:23;;;;;;;7.83;2.00;;;6.00;99.90;;;;;;10299168;28;20232;-82
2023/01/14 03:24:24;;;;;;;6.37;1.93;;;6.00;99.90;;;;;;10325077;28;20244;-82
2023/01/14 03:29:50;;;;;;;7.20;1.73;;;6.20;99.90;;;;;;10327683;28;20204;-80
2023/01/14 03:35:16;;;;;;;5.77;1.87;;;6.10;99.90;;;;;;10318455;28;20275;-80
2023/01/14 03:40:39;;;;;;;5.80;1.93;;;6.20;99.90;;;;;;10359962;28;20242;-85
2023/01/14 03:46:01;;;;;;;4.90;2.03;;;6.20;99.90;;;;;;10388632;28;20192;-81
2023/01/14 03:51:41;;;;;;;5.07;2.13;;;6.10;99.90;;;;;;10388648;28;20489;-81
2023/01/14 03:57:21;;;;;;;6.43;2.10;;;6.10;99.90;;;;;;10357990;28;20227;-85
2023/01/14 04:02:45;;;;;;;6.80;2.07;;;6.10;99.90;;;;;;10372308;28;20206;-80
2023/01/14 04:08:07;;;;;;;5.20;2.27;;;6.10;99.90;;;;;;10384908;28;20189;-88
2023/01/14 04:19:08;;;;;;;4.57;1.77;;;6.10;99.90;;;;;;10334669;28;20231;-81
2023/01/14 04:24:29;;;;;;;4.27;1.33;;;6.00;99.90;;;;;;10329221;28;20248;-89
2023/01/14 04:29:50;;;;;;;4.37;2.00;;;6.00;99.90;;;;;;10302632;28;20491;-80
2023/01/14 04:35:12;;;;;;;3.07;1.40;;;6.00;99.90;;;;;;10295444;28;20202;-79
2023/01/14 04:40:33;;;;;;;6.30;2.20;;;6.00;99.90;;;;;;10366552;28;20217;-79
2023/01/14 04:45:54;;;;;;;4.40;1.57;;;6.00;99.90;;;;;;10369614;28;20202;-79
2023/01/14 04:51:15;;;;;;;2.77;2.00;;;6.00;99.90;;;;;;10369435;28;20510;-79
2023/01/14 04:56:37;;;;;;;6.53;2.00;;;6.00;99.90;;;;;;10368814;28;20270;-86
2023/01/14 05:01:58;;;;;;;7.00;2.20;;;6.00;99.90;;;;;;10371836;28;20485;-78
2023/01/14 05:07:19;;;;;;;6.50;2.27;;;5.90;99.90;;;;;;10355253;28;20211;-80
2023/01/14 05:12:55;;;;;;;4.53;1.63;;;5.90;99.90;;;;;;10354591;28;20254;-80
2023/01/14 05:18:17;;;;;;;4.17;1.97;;;6.00;99.90;;;;;;10332719;28;20585;-81
2023/01/14 05:23:38;;;;;;;6.97;2.13;;;6.00;99.90;;;;;;10368442;28;20243;-79
2023/01/14 05:28:59;;;;;;;4.53;2.00;;;5.80;99.90;;;;;;10330653;28;20203;-79
2023/01/14 05:34:21;;;;;;;9.53;3.23;;;5.80;99.90;;;;;;10348374;28;20179;-81
2023/01/14 05:39:42;;;;;;;5.73;2.17;;;5.80;99.90;;;;;;10350339;28;20234;-86
2023/01/14 05:50:45;;;;;;;6.70;1.80;;;5.80;99.90;;;;;;10361953;28;20210;-80
2023/01/14 05:56:07;;;;;;;8.00;1.80;;;5.60;99.90;;;;;;10352774;28;20210;-83
2023/01/14 06:07:08;;;;;;;4.90;1.30;;;5.40;99.90;;;;;;10382268;28;20367;-79
2023/01/14 06:18:09;;;;;;;5.53;2.20;;;5.50;99.90;;;;;;10331308;28;20236;-79
2023/01/14 06:23:31;;;;;;;5.67;2.17;;;5.40;99.90;;;;;;10298822;28;20340;-80
2023/01/14 06:28:58;;;;;;;4.63;2.37;;;5.50;99.90;;;;;;10334280;28;20197;-82
2023/01/14 06:34:21;;;;;;;7.30;2.07;;;5.50;99.90;;;;;;10341532;28;20511;-82
2023/01/14 06:39:42;;;;;;;5.23;2.03;;;5.50;99.90;;;;;;10345236;28;20257;-85
2023/01/14 06:45:04;;;;;;;5.97;2.43;;;5.60;99.90;;;;;;10368419;28;20226;-79
2023/01/14 06:50:25;;;;;;;9.23;4.20;;;5.50;99.90;;;;;;10353305;28;20227;-82
2023/01/14 06:55:48;;;;;;;6.23;2.70;;;5.50;99.90;;;;;;10373701;28;20205;-80
2023/01/14 07:01:09;;;;;;;10.50;2.70;;;5.60;99.90;;;;;;10390114;28;20471;-79
2023/01/14 07:06:31;;;;;;;5.53;2.10;;;5.60;99.90;;;;;;10373201;28;20208;-83
2023/01/14 07:11:52;;;;;;;7.83;3.43;;;5.60;99.90;;;;;;10404243;28;20198;-80
2023/01/14 07:17:14;;;;;;;8.83;3.50;;;5.70;99.90;;;;;;10332373;28;20265;-82
2023/01/14 07:22:35;;;;;;;6.50;3.70;;;5.70;99.90;;;;;;10331437;28;20244;-80
2023/01/14 07:27:56;;;;;;;7.93;2.80;;;5.70;99.90;;;;;;10329318;28;20216;-79
2023/01/14 07:33:18;;;;;;;7.07;3.80;;;5.70;99.90;;;;;;10323664;28;20483;-84
2023/01/14 07:38:40;;;;;;;12.63;5.67;;;5.70;99.90;;;;;;10360232;28;20255;-80
2023/01/14 07:44:02;;;;;;;10.97;6.43;;;5.70;99.90;;;;;;10358327;28;20203;-80
2023/01/14 07:49:24;;;;;;;12.17;6.57;;;5.70;99.90;;;;;;10371460;28;20207;-82
2023/01/14 07:54:45;;;;;;;15.60;7.50;;;5.80;99.90;;;;;;10371725;28;20202;-80
2023/01/14 08:00:07;;;;;;;7.03;4.70;;;5.80;99.90;;;;;;10371388;28;20231;-82
2023/01/14 08:05:33;;;;;;;14.87;6.37;;;5.80;99.90;;;;;;10371426;28;20206;-81
2023/01/14 08:10:54;;;;;;;7.07;3.90;;;5.90;99.90;;;;;;10381255;28;20204;-80
2023/01/14 08:16:16;;;;;;;9.57;4.70;;;6.00;99.90;;;;;;10355080;28;20400;-79
2023/01/14 08:21:38;;;;;;;11.73;6.13;;;6.10;99.90;;;;;;10343104;28;20254;-81
2023/01/14 08:26:59;;;;;;;14.07;5.40;;;6.10;99.90;;;;;;10317267;28;20200;-84
2023/01/14 08:32:21;;;;;;;11.20;5.03;;;6.20;99.90;;;;;;10346233;28;20510;-81
2023/01/14 08:37:42;;;;;;;11.47;4.93;;;6.40;99.90;;;;;;10320282;28;20250;-79
2023/01/14 08:43:04;;;;;;;8.50;3.93;;;6.40;99.90;;;;;;10356264;28;20213;-81
2023/01/14 08:48:25;;;;;;;16.17;5.30;;;6.50;99.90;;;;;;10363042;28;20203;-81
2023/01/14 08:53:46;;;;;;;15.40;6.07;;;6.70;99.90;;;;;;10369597;28;20193;-81
2023/01/14 08:59:11;;;;;;;9.50;3.23;;;7.50;99.90;;;;;;10355619;28;20251;-82
2023/01/14 09:04:33;;;;;;;10.33;3.90;;;7.50;99.90;;;;;;10350307;28;20228;-81
2023/01/14 09:21:14;;;;;;;14.27;3.27;;;7.50;1.00;;;;;;10352621;28;20248;-86
2023/01/14 09:26:36;;;;;;;8.83;3.50;;;7.40;1.00;;;;;;10325954;28;20224;-80
2023/01/14 09:31:58;;;;;;;8.73;4.03;;;7.30;1.00;;;;;;10328830;28;20400;-83
2023/01/14 09:37:23;;;;;;;7.73;3.30;;;7.20;1.00;;;;;;10294027;28;20300;-80
2023/01/14 09:42:49;;;;;;;7.90;3.77;;;7.30;1.00;;;;;;10401172;28;20200;-79
2023/01/14 09:48:16;;;;;;;11.57;4.37;;;7.40;1.00;;;;;;10379049;28;20433;-81
2023/01/14 09:54:06;;;;;;;6.33;2.80;;;7.50;1.00;;;;;;10395527;28;20451;-82
2023/01/14 09:59:37;;;;;;;13.87;3.07;;;7.30;1.00;;;;;;10386421;28;20252;-79
2023/01/14 10:05:21;;;;;;;7.67;2.23;;;7.10;1.00;;;;;;10355098;28;20233;-80
2023/01/14 10:10:44;;;;;;;5.47;2.73;;;7.20;1.00;;;;;;10365485;28;20196;-80
2023/01/14 10:16:24;;;;;;;6.33;3.10;;;7.20;1.00;;;;;;10366603;28;20193;-82
2023/01/14 10:21:46;;;;;;;7.57;3.63;;;7.10;1.00;;;;;;10352564;28;20246;-81
2023/01/14 10:27:15;;;;;;;12.40;3.57;;;7.00;1.00;;;;;;10313121;28;20192;-86
2023/01/14 10:33:05;;;;;;;13.63;6.37;;;6.90;1.00;;;;;;10381557;23;20275;-80
2023/01/14 10:38:27;;;;;;;11.37;4.17;;;6.80;1.00;;;;;;10383631;28;20307;-80
2023/01/14 10:43:50;;;;;;;23.40;8.03;;;6.80;1.00;;;;;;10367452;28;20227;-81
2023/01/14 10:49:22;;;;;;;18.27;9.43;;;6.90;1.00;;;;;;10355332;28;20208;-81
2023/01/14 10:55:28;;;;;;;16.77;6.10;;;7.00;1.00;;;;;;10352927;28;20250;-83
2023/01/14 11:00:51;;;;;;;19.47;7.73;;;6.80;1.00;;;;;;10217296;29;20239;-86
2023/01/14 11:06:15;;;;;;;8.93;4.67;;;6.70;13.80;;;;;;10205760;29;20210;-86
2023/01/14 11:11:39;;;;;;;6.50;2.70;;;6.70;1.00;;;;;;10203660;29;20215;-81
2023/01/14 11:17:29;;;;;;;11.33;4.90;;;6.50;1.00;;;;;;10203880;29;20205;-80
2023/01/14 11:23:01;;;;;;;10.13;4.90;;;6.50;8.70;;;;;;10189977;29;20491;-80
2023/01/14 11:28:23;;;;;;;20.73;8.00;;;6.50;23.60;;;;;;10202927;29;20226;-80
2023/01/14 11:33:52;;;;;;;9.10;4.57;;;6.60;19.90;;;;;;10304689;28;20231;-80
2023/01/14 11:39:20;;;;;;;7.53;3.60;;;7.30;34.50;;;;;;10349664;28;20232;-84
2023/01/14 11:44:41;;;;;;;3.00;2.10;;;7.90;1.00;;;;;;10375464;28;20193;-81
2023/01/14 11:50:28;;;;;;;7.43;3.57;;;7.70;1.00;;;;;;10372560;28;20207;-80
2023/01/14 11:55:54;;;;;;;18.33;8.80;;;7.50;1.00;;;;;;10359660;28;20254;-83
2023/01/14 12:01:47;;;;;;;18.27;10.40;;;7.20;1.00;;;;;;10372131;28;20282;-81
2023/01/14 12:07:12;;;;;;;19.47;9.03;;;7.20;1.00;;;;;;10358202;28;20405;-80
2023/01/14 12:18:31;;;;;;;23.43;10.63;;;7.10;1.00;;;;;;10371062;28;20235;-82
2023/01/14 12:24:10;;;;;;;10.43;4.40;;;7.00;1.00;;;;;;10387265;28;20209;-80
2023/01/14 12:29:38;;;;;;;8.20;3.47;;;7.00;1.00;;;;;;10370439;28;20234;-81
2023/01/14 12:35:00;;;;;;;9.03;5.07;;;6.90;1.00;;;;;;10370303;28;20242;-82
2023/01/14 12:46:24;;;;;;;16.90;7.97;;;6.90;1.00;;;;;;10369941;28;20204;-85
2023/01/14 12:51:47;;;;;;;17.70;8.00;;;6.90;1.00;;;;;;10369378;28;20194;-80
2023/01/14 12:57:17;;;;;;;38.67;19.73;;;6.80;1.00;;;;;;10369237;28;20223;-86
2023/01/14 13:02:42;;;;;;;19.33;7.80;;;6.70;1.00;;;;;;10372646;28;20490;-84
2023/01/14 13:08:07;;;;;;;12.27;5.07;;;6.70;1.00;;;;;;10368918;28;20210;-83
2023/01/14 13:13:31;;;;;;;13.33;4.83;;;6.70;1.00;;;;;;10369018;28;20203;-80
2023/01/14 13:19:00;;;;;;;16.03;8.87;;;6.80;1.00;;;;;;10399773;28;20441;-80
2023/01/14 13:24:27;;;;;;;28.77;15.30;;;6.70;1.00;;;;;;10366090;28;20234;-86
2023/01/14 13:29:48;;;;;;;23.53;10.90;;;6.80;1.00;;;;;;10354557;28;20203;-85
2023/01/14 13:35:20;;;;;;;13.27;7.47;;;7.00;1.00;;;;;;10384444;28;20231;-81
2023/01/14 13:40:53;;;;;;;13.33;7.67;;;6.90;1.00;;;;;;10370378;28;20579;-80
2023/01/14 13:46:33;;;;;;;14.73;7.10;;;6.80;1.00;;;;;;10367566;28;20203;-83
2023/01/14 13:52:01;;;;;;;9.13;3.00;;;6.70;1.00;;;;;;10367187;28;20208;-86
2023/01/14 13:57:29;;;;;;;14.60;7.97;;;6.60;1.00;;;;;;10380732;28;20202;-82
2023/01/14 14:02:56;;;;;;;16.27;7.50;;;6.50;1.00;;;;;;10354039;28;20207;-86
2023/01/14 14:08:25;;;;;;;21.20;10.87;;;6.40;1.00;;;;;;10353584;28;20272;-80
2023/01/14 14:14:03;;;;;;;21.00;9.50;;;6.30;7.40;;;;;;10370624;28;20271;-79
2023/01/14 14:19:32;;;;;;;25.43;12.47;;;6.30;21.30;;;;;;10385219;28;20259;-81
2023/01/14 14:24:59;;;;;;;31.77;16.50;;;6.30;27.70;;;;;;10388152;28;20203;-80
2023/01/14 14:30:27;;;;;;;31.40;19.33;;;6.30;47.40;;;;;;10385516;28;20378;-80
2023/01/14 14:35:54;;;;;;;21.13;13.37;;;6.20;29.90;;;;;;10366562;28;20210;-83
2023/01/14 14:41:22;;;;;;;26.83;13.27;;;6.20;33.30;;;;;;10339035;28;20298;-85
2023/01/14 14:46:44;;;;;;;89.23;49.17;;;6.20;22.10;;;;;;10356442;28;20204;-80
2023/01/14 14:52:16;;;;;;;21.70;16.00;;;6.20;14.00;;;;;;10325074;28;20211;-86
2023/01/14 14:57:39;;;;;;;24.60;10.60;;;6.10;20.70;;;;;;10311795;28;20265;-79
2023/01/14 15:03:00;;;;;;;22.57;11.40;;;6.10;6.50;;;;;;10341845;28;20209;-80
2023/01/14 15:08:28;;;;;;;48.90;27.93;;;6.10;14.00;;;;;;10371846;28;20202;-81
2023/01/14 15:13:49;;;;;;;24.93;14.50;;;6.00;12.40;;;;;;10349289;28;20199;-81
2023/01/14 15:19:11;;;;;;;17.53;10.00;;;6.00;1.00;;;;;;10332573;28;20231;-82
2023/01/14 15:24:33;;;;;;;18.87;10.37;;;5.90;7.20;;;;;;10380247;28;20198;-80
2023/01/14 15:30:00;;;;;;;20.43;10.47;;;5.80;7.30;;;;;;10389256;28;20275;-81
2023/01/14 15:35:27;;;;;;;25.00;11.70;;;5.70;20.50;;;;;;10375045;28;20544;-80
2023/01/14 15:40:50;;;;;;;35.00;18.63;;;5.60;38.70;;;;;;10372518;28;20230;-84
2023/01/14 15:46:18;;;;;;;29.27;13.77;;;5.50;77.70;;;;;;10372175;28;20204;-81
2023/01/14 15:51:42;;;;;;;59.03;28.40;;;5.40;95.00;;;;;;10388216;28;20525;-80
2023/01/14 15:57:16;;;;;;;76.23;37.17;;;5.30;96.20;;;;;;10358059;28;20248;-81
2023/01/14 16:02:37;;;;;;;46.70;23.27;;;5.30;99.90;;;;;;10357633;28;20229;-81
2023/01/14 16:08:06;;;;;;;32.57;15.13;;;5.20;99.90;;;;;;10357870;28;20452;-82
2023/01/14 16:13:27;;;;;;;23.93;13.80;;;5.20;99.90;;;;;;10370851;28;20382;-83
2023/01/14 16:18:52;;;;;;;18.93;9.00;;;5.20;99.90;;;;;;10356150;28;20258;-81
2023/01/14 16:24:13;;;;;;;29.17;14.30;;;5.10;99.90;;;;;;10387074;28;20244;-84
2023/01/14 16:29:34;;;;;;;29.07;14.93;;;5.10;99.90;;;;;;10370614;28;20207;-85
2023/01/14 16:34:55;;;;;;;16.37;8.40;;;5.20;99.90;;;;;;10356470;28;20230;-80
2023/01/14 16:40:32;;;;;;;19.03;9.90;;;5.30;99.90;;;;;;10370127;28;20231;-88
2023/01/14 16:45:53;;;;;;;45.40;20.93;;;5.30;99.90;;;;;;10369692;28;20395;-80
2023/01/14 16:51:19;;;;;;;25.67;12.87;;;5.30;99.90;;;;;;10386113;28;20203;-87
2023/01/14 16:56:41;;;;;;;15.70;7.90;;;5.30;85.50;;;;;;10369377;28;20283;-80
2023/01/14 17:02:02;;;;;;;21.07;9.23;;;5.40;49.50;;;;;;10368676;28;20407;-80
2023/01/14 17:07:23;;;;;;;21.70;8.23;;;5.30;69.90;;;;;;10368306;28;20273;-81
2023/01/14 17:12:46;;;;;;;16.67;6.23;;;5.20;91.80;;;;;;10368253;28;20202;-81
2023/01/14 17:18:09;;;;;;;19.23;6.87;;;5.30;56.10;;;;;;10384398;28;20200;-80
2023/01/14 17:23:30;;;;;;;19.17;7.10;;;5.30;75.70;;;;;;10368754;28;20214;-87
2023/01/14 17:28:51;;;;;;;21.03;10.07;;;5.30;41.50;;;;;;10354339;28;20219;-80
2023/01/14 17:34:12;;;;;;;14.67;6.70;;;5.30;23.70;;;;;;10336573;28;20430;-84
2023/01/14 17:39:33;;;;;;;25.10;10.43;;;5.40;3.60;;;;;;10327499;28;20581;-82
2023/01/14 17:44:56;;;;;;;13.90;6.27;;;5.30;22.90;;;;;;10326997;28;20459;-84
2023/01/14 17:50:18;;;;;;;17.27;7.13;;;5.40;1.00;;;;;;10326834;28;20238;-81
2023/01/14 17:55:39;;;;;;;15.87;6.87;;;5.40;1.00;;;;;;10313642;28;20198;-81
2023/01/14 18:01:12;;;;;;;22.20;7.53;;;5.40;1.00;;;;;;10326240;28;20235;-81
2023/01/14 18:06:36;;;;;;;22.57;7.90;;;5.50;1.00;;;;;;10329515;28;20196;-83
2023/01/14 18:11:58;;;;;;;39.30;13.80;;;5.50;1.00;;;;;;10326883;28;20203;-84
2023/01/14 18:17:20;;;;;;;24.23;8.53;;;5.60;1.00;;;;;;10326688;28;20218;-83
2023/01/14 18:22:41;;;;;;;23.80;11.27;;;5.60;1.00;;;;;;10333551;28;20224;-82
2023/01/14 18:28:03;;;;;;;20.33;8.37;;;5.70;1.00;;;;;;10350052;28;20188;-80
2023/01/14 18:33:24;;;;;;;24.33;8.43;;;5.70;1.00;;;;;;10336904;28;20248;-84
2023/01/14 18:38:45;;;;;;;16.20;6.13;;;5.70;1.00;;;;;;10342784;28;20230;-82
2023/01/14 18:44:07;;;;;;;15.93;7.00;;;5.80;1.00;;;;;;10339085;28;20203;-80
2023/01/14 18:49:28;;;;;;;16.83;6.73;;;5.80;1.00;;;;;;10312171;28;20198;-82
2023/01/14 18:54:49;;;;;;;18.03;6.43;;;5.90;1.00;;;;;;10328893;28;20263;-85
2023/01/14 19:00:12;;;;;;;16.33;6.10;;;5.90;1.00;;;;;;10325920;28;20227;-86
2023/01/14 19:05:36;;;;;;;20.47;8.50;;;5.90;1.00;;;;;;10356769;28;20264;-86
2023/01/14 19:11:00;;;;;;;17.50;5.50;;;6.00;1.00;;;;;;10327803;28;20195;-84
2023/01/14 19:16:22;;;;;;;19.17;6.60;;;6.00;1.00;;;;;;10339117;28;20254;-82
2023/01/14 19:21:44;;;;;;;17.40;6.57;;;6.00;99.90;;;;;;10335053;28;20218;-83
2023/01/14 19:27:05;;;;;;;15.07;5.07;;;6.00;99.90;;;;;;10328325;28;20257;-82
2023/01/14 19:32:27;;;;;;;20.73;9.40;;;6.00;99.90;;;;;;10341949;28;20230;-80
2023/01/14 19:37:48;;;;;;;12.20;5.20;;;5.90;1.00;;;;;;10345773;28;20211;-81
2023/01/14 19:43:09;;;;;;;23.73;10.47;;;6.00;99.90;;;;;;10378546;28;20210;-84
2023/01/14 19:48:35;;;;;;;13.43;6.97;;;6.00;99.90;;;;;;10364966;28;20265;-83
2023/01/14 19:53:56;;;;;;;13.83;5.57;;;6.00;99.90;;;;;;10355308;28;20201;-84
2023/01/14 19:59:17;;;;;;;12.10;5.47;;;6.10;99.90;;;;;;10371166;28;20243;-86
2023/01/14 20:04:39;;;;;;;17.90;5.70;;;6.00;99.90;;;;;;10376331;28;20274;-80
2023/01/14 20:10:00;;;;;;;24.70;7.17;;;5.90;1.00;;;;;;10389287;28;20254;-81
2023/01/14 20:15:22;;;;;;;10.67;4.63;;;5.90;1.00;;;;;;10375022;28;20249;-80
2023/01/14 20:20:43;;;;;;;10.93;4.37;;;5.80;1.00;;;;;;10370969;28;20230;-82
2023/01/14 20:26:13;;;;;;;15.40;7.27;;;5.80;1.00;;;;;;10370178;28;20515;-80
2023/01/14 20:31:35;;;;;;;15.20;7.13;;;5.80;1.00;;;;;;10396791;28;20539;-80
2023/01/14 20:36:56;;;;;;;12.30;4.93;;;5.80;1.00;;;;;;10363200;28;20200;-85
2023/01/14 20:42:17;;;;;;;14.57;6.43;;;5.80;1.00;;;;;;10345643;28;20299;-85
2023/01/14 20:48:20;;;;;;;13.80;6.13;;;5.80;1.00;;;;;;10345585;28;20270;-80
2023/01/14 20:53:24;;;;;;;14.83;6.53;;;5.60;1.00;;;;;;10342435;28;20209;-81
2023/01/14 21:04:06;;;;;;;18.47;6.60;;;5.40;1.00;;;;;;10342658;28;20253;-83
2023/01/14 21:09:28;;;;;;;14.07;6.17;;;5.30;15.90;;;;;;10344593;28;20214;-78
2023/01/14 21:26:09;;;;;;;15.07;6.67;;;5.30;37.20;;;;;;10380372;28;20263;-86
2023/01/14 21:31:31;;;;;;;14.23;6.40;;;5.30;82.30;;;;;;10409384;28;20261;-82
2023/01/14 21:36:52;;;;;;;16.80;8.87;;;5.20;99.90;;;;;;10375420;28;20223;-80
2023/01/14 21:47:53;;;;;;;18.50;6.67;;;5.20;99.90;;;;;;10327319;28;20253;-84
2023/01/14 21:53:16;;;;;;;10.20;4.73;;;5.10;99.90;;;;;;10327066;28;20443;-84
2023/01/14 21:58:37;;;;;;;15.17;5.93;;;5.20;97.30;;;;;;10327113;28;20203;-81
2023/01/14 22:04:00;;;;;;;12.63;5.77;;;5.30;35.80;;;;;;10342718;28;20249;-80
2023/01/14 22:09:22;;;;;;;14.87;5.10;;;5.20;70.50;;;;;;10342695;28;20220;-80
2023/01/14 22:14:43;;;;;;;8.93;4.67;;;5.30;43.60;;;;;;10331886;28;20425;-86
2023/01/14 22:20:06;;;;;;;15.37;6.17;;;5.30;22.40;;;;;;10366226;28;20447;-84
2023/01/14 22:25:27;;;;;;;14.57;5.63;;;5.20;83.80;;;;;;10379304;28;20252;-84
2023/01/14 22:30:48;;;;;;;12.90;4.90;;;5.30;26.70;;;;;;10406529;28;20243;-82
2023/01/14 22:36:10;;;;;;;13.03;4.83;;;5.30;27.20;;;;;;10355091;28;20223;-85
2023/01/14 22:41:31;;;;;;;18.00;6.07;;;5.30;22.90;;;;;;10365512;28;20229;-83
2023/01/14 22:46:52;;;;;;;18.27;5.07;;;5.30;11.90;;;;;;10365790;28;20265;-82
2023/01/14 22:52:14;;;;;;;11.57;5.17;;;5.30;14.90;;;;;;10378909;28;20279;-82
2023/01/14 22:57:35;;;;;;;13.03;5.67;;;5.30;6.20;;;;;;10365763;28;20203;-84
2023/01/14 23:02:59;;;;;;;12.70;4.90;;;5.30;17.20;;;;;;10351700;28;20235;-80
2023/01/14 23:08:20;;;;;;;13.43;4.60;;;5.30;1.00;;;;;;10365156;28;20203;-80
2023/01/14 23:13:54;;;;;;;14.40;6.23;;;5.40;1.00;;;;;;10367562;28;20233;-82
2023/01/14 23:19:28;;;;;;;18.77;5.43;;;5.40;1.00;;;;;;10368408;28;20265;-88
2023/01/14 23:24:49;;;;;;;12.10;4.90;;;5.40;1.00;;;;;;10365606;28;20506;-81
2023/01/14 23:30:11;;;;;;;8.93;4.27;;;5.40;1.00;;;;;;10318680;28;20269;-81
2023/01/14 23:35:32;;;;;;;7.50;3.50;;;5.50;1.00;;;;;;10330607;28;20292;-86
2023/01/14 23:40:54;;;;;;;7.00;3.87;;;5.60;1.00;;;;;;10348090;28;20245;-88
2023/01/14 23:46:15;;;;;;;12.67;3.70;;;5.70;1.00;;;;;;10362236;28;20223;-83
2023/01/14 23:51:36;;;;;;;11.90;4.93;;;5.80;1.00;;;;;;10332589;28;20313;-81
2023/01/14 23:56:58;;;;;;;9.47;4.10;;;5.80;1.00;;;;;;10331957;28;20222;-80
